Gaia — PC4584 — position and weather

sailwx.info

Track history (hours):
 
Tides and Currents Weather Stations Pressure Air Temp Water Temp Dewpoint Dewpoint Depression Visibility Wind Speed Wind Dir Waves Ship Positions

Gaia

Last reported at 2017-Sep-10 12:03 UTC. Time now 2017-Sep-21 03:16 UTC.
Position N 52°48' E 005°34'.
Warning: this ship's position is 10 days out of date.

Length 12 m.

Type: Sailing vessel. MMSI: 244615031.

Date/timePositionNaut miles runAvg speedWind from/ knotsBaromVisibWave heightAir tempDewpointWater temp
2017-Sep-10 12:03N 52°48' E 005°34'1 6.8
2017-Sep-10 11:57N 52°47' E 005°33'3 6.4
2017-Sep-10 11:30N 52°46' E 005°29'3 6.5
2017-Sep-10 11:00N 52°44' E 005°25'3 6.5
2017-Sep-10 10:30N 52°43' E 005°20'2 3.2
2017-Sep-10 09:59N 52°42' E 005°17'0 0.0
2017-Sep-10 09:30N 52°42' E 005°17'0 0.0
2017-Sep-10 08:59N 52°42' E 005°17'0 0.0
2017-Sep-10 08:28N 52°42' E 005°17'0 0.1
2017-Sep-10 07:59N 52°42' E 005°17'0 0.0
2017-Sep-10 07:29N 52°42' E 005°17'0 0.0
2017-Sep-10 06:59N 52°42' E 005°17'0 0.0
2017-Sep-10 06:29N 52°42' E 005°17'0 0.0
2017-Sep-10 05:59N 52°42' E 005°17'0 0.0
2017-Sep-10 05:29N 52°42' E 005°17'0 0.0
2017-Sep-10 04:59N 52°42' E 005°17'0 0.0
2017-Sep-10 04:29N 52°42' E 005°17'0 0.0
2017-Sep-10 03:59N 52°42' E 005°17'0 0.0
2017-Sep-10 03:29N 52°42' E 005°17'0 0.0
2017-Sep-10 02:59N 52°42' E 005°17'0 0.0
2017-Sep-10 02:29N 52°42' E 005°17'0 0.0
2017-Sep-10 01:59N 52°42' E 005°17'0 0.0
2017-Sep-10 01:29N 52°42' E 005°17'0 0.0
2017-Sep-10 00:59N 52°42' E 005°17'0 0.0
2017-Sep-10 00:29N 52°42' E 005°17'0 0.0
2017-Sep-09 23:59N 52°42' E 005°17'0 0.0
2017-Sep-09 23:29N 52°42' E 005°17'0 0.0
2017-Sep-09 22:59N 52°42' E 005°17'0 0.0
2017-Sep-09 22:29N 52°42' E 005°17'0 0.0
2017-Sep-09 21:59N 52°42' E 005°17'0 0.0
2017-Sep-09 21:29N 52°42' E 005°17'0 0.0
2017-Sep-09 20:59N 52°42' E 005°17'0 0.0
2017-Sep-09 20:29N 52°42' E 005°17'0 0.0
2017-Sep-09 19:59N 52°42' E 005°17'0 0.0
2017-Sep-09 19:29N 52°42' E 005°17'0 0.0
2017-Sep-09 18:59N 52°42' E 005°17'0 0.0
2017-Sep-09 18:29N 52°42' E 005°17'0 0.0
2017-Sep-09 17:59N 52°42' E 005°17'0 0.0
2017-Sep-09 17:29N 52°42' E 005°17'0 0.0
2017-Sep-09 16:59N 52°42' E 005°17'0 1.1
2017-Sep-09 16:30N 52°42' E 005°18'2 4.4
2017-Sep-09 16:00N 52°44' E 005°21'3 5.8
2017-Sep-09 15:30N 52°46' E 005°24'3 6.2
2017-Sep-09 14:59N 52°48' E 005°28'  
Track history (hours):
 
Tides and Currents Weather Stations Pressure Air Temp Water Temp Dewpoint Dewpoint Depression Visibility Wind Speed Wind Dir Waves Ship Positions

Gaia

Last reported at 2017-Sep-10 12:03 UTC. Time now 2017-Sep-21 03:16 UTC.
Position N 52°48' E 005°34'.
Warning: this ship's position is 10 days out of date.

Length 12 m.

Type: Sailing vessel. MMSI: 244615031.

Date/timePositionNaut miles runAvg speedWind from/ knotsBaromVisibWave heightAir tempDewpointWater temp
2017-Sep-10 12:03N 52°48' E 005°34'1 6.8
2017-Sep-10 11:57N 52°47' E 005°33'3 6.4
2017-Sep-10 11:30N 52°46' E 005°29'3 6.5
2017-Sep-10 11:00N 52°44' E 005°25'3 6.5
2017-Sep-10 10:30N 52°43' E 005°20'2 3.2
2017-Sep-10 09:59N 52°42' E 005°17'0 0.0
2017-Sep-10 09:30N 52°42' E 005°17'0 0.0
2017-Sep-10 08:59N 52°42' E 005°17'0 0.0
2017-Sep-10 08:28N 52°42' E 005°17'0 0.1
2017-Sep-10 07:59N 52°42' E 005°17'0 0.0
2017-Sep-10 07:29N 52°42' E 005°17'0 0.0
2017-Sep-10 06:59N 52°42' E 005°17'0 0.0
2017-Sep-10 06:29N 52°42' E 005°17'0 0.0
2017-Sep-10 05:59N 52°42' E 005°17'0 0.0
2017-Sep-10 05:29N 52°42' E 005°17'0 0.0
2017-Sep-10 04:59N 52°42' E 005°17'0 0.0
2017-Sep-10 04:29N 52°42' E 005°17'0 0.0
2017-Sep-10 03:59N 52°42' E 005°17'0 0.0
2017-Sep-10 03:29N 52°42' E 005°17'0 0.0
2017-Sep-10 02:59N 52°42' E 005°17'0 0.0
2017-Sep-10 02:29N 52°42' E 005°17'0 0.0
2017-Sep-10 01:59N 52°42' E 005°17'0 0.0
2017-Sep-10 01:29N 52°42' E 005°17'0 0.0
2017-Sep-10 00:59N 52°42' E 005°17'0 0.0
2017-Sep-10 00:29N 52°42' E 005°17'0 0.0
2017-Sep-09 23:59N 52°42' E 005°17'0 0.0
2017-Sep-09 23:29N 52°42' E 005°17'0 0.0
2017-Sep-09 22:59N 52°42' E 005°17'0 0.0
2017-Sep-09 22:29N 52°42' E 005°17'0 0.0
2017-Sep-09 21:59N 52°42' E 005°17'0 0.0
2017-Sep-09 21:29N 52°42' E 005°17'0 0.0
2017-Sep-09 20:59N 52°42' E 005°17'0 0.0
2017-Sep-09 20:29N 52°42' E 005°17'0 0.0
2017-Sep-09 19:59N 52°42' E 005°17'0 0.0
2017-Sep-09 19:29N 52°42' E 005°17'0 0.0
2017-Sep-09 18:59N 52°42' E 005°17'0 0.0
2017-Sep-09 18:29N 52°42' E 005°17'0 0.0
2017-Sep-09 17:59N 52°42' E 005°17'0 0.0
2017-Sep-09 17:29N 52°42' E 005°17'0 0.0
2017-Sep-09 16:59N 52°42' E 005°17'0 1.1
2017-Sep-09 16:30N 52°42' E 005°18'2 4.4
2017-Sep-09 16:00N 52°44' E 005°21'3 5.8
2017-Sep-09 15:30N 52°46' E 005°24'3 6.2
2017-Sep-09 14:59N 52°48' E 005°28'  

Dump ship's entire track history